createdAt,value
2018-11-25T00:00:36.288Z,56.83
2018-11-25T00:03:05.022Z,54.27
2018-11-25T00:05:33.494Z,55.10
2018-11-25T00:08:18.003Z,55.57
2018-11-25T00:10:47.675Z,52.77
2018-11-25T00:13:17.422Z,50.10
2018-11-25T00:15:47.199Z,52.80
2018-11-25T00:18:18.085Z,50.40
2018-11-25T00:20:46.776Z,50.30
2018-11-25T00:23:16.569Z,48.70
2018-11-25T00:25:46.468Z,47.50
2018-11-25T00:28:16.188Z,50.10
2018-11-25T00:30:45.948Z,46.87
2018-11-25T00:33:15.534Z,46.33
2018-11-25T00:35:45.287Z,46.87
2018-11-25T00:38:14.940Z,45.57
2018-11-25T00:40:44.612Z,46.00
2018-11-25T00:43:14.352Z,46.13
2018-11-25T00:45:44.148Z,44.40
2018-11-25T00:48:13.947Z,43.97
2018-11-25T00:50:43.664Z,43.47
2018-11-25T00:53:13.472Z,43.13
2018-11-25T00:55:43.282Z,43.17
2018-11-25T00:58:13.096Z,43.73
2018-11-25T01:00:42.863Z,41.90
2018-11-25T01:03:12.696Z,41.70
2018-11-25T01:05:42.485Z,40.27
2018-11-25T01:08:12.283Z,40.93
2018-11-25T01:10:42.307Z,40.27
2018-11-25T01:13:12.112Z,39.33
2018-11-25T01:15:41.925Z,38.40
2018-11-25T01:18:11.606Z,38.00
2018-11-25T01:20:41.211Z,39.20
2018-11-25T01:23:10.992Z,39.60
2018-11-25T01:25:40.787Z,38.57
2018-11-25T01:28:10.464Z,37.33
2018-11-25T01:30:40.164Z,38.80
2018-11-25T01:33:09.956Z,38.00
2018-11-25T01:35:39.665Z,38.03
2018-11-25T01:38:09.494Z,35.47
2018-11-25T01:40:39.271Z,36.10
2018-11-25T01:43:09.007Z,35.87
2018-11-25T01:45:38.765Z,36.63
2018-11-25T01:48:08.582Z,34.00
2018-11-25T01:50:38.464Z,35.50
2018-11-25T01:53:08.275Z,35.43
2018-11-25T01:55:38.400Z,35.70
2018-11-25T01:58:08.383Z,33.57
2018-11-25T02:00:38.179Z,32.67
2018-11-25T02:03:07.887Z,33.17
2018-11-25T02:05:37.619Z,33.10
2018-11-25T02:08:07.292Z,33.10
2018-11-25T02:10:37.081Z,31.77
2018-11-25T02:13:06.782Z,32.07
2018-11-25T02:15:36.990Z,32.70
2018-11-25T02:18:06.790Z,31.53
2018-11-25T02:20:36.471Z,32.30
2018-11-25T02:23:06.472Z,30.43
2018-11-25T02:25:36.148Z,29.93
2018-11-25T02:28:06.053Z,30.03
2018-11-25T02:30:35.662Z,31.60
2018-11-25T02:33:05.576Z,30.53
2018-11-25T02:35:35.560Z,30.37
2018-11-25T02:38:05.261Z,28.57
2018-11-25T02:40:35.091Z,30.83
2018-11-25T02:43:04.837Z,30.23
2018-11-25T02:45:34.690Z,28.57
2018-11-25T02:48:04.509Z,28.60
2018-11-25T02:50:34.487Z,28.30
2018-11-25T02:53:07.860Z,28.13
2018-11-25T02:55:37.656Z,28.27
2018-11-25T02:58:07.352Z,27.90
2018-11-25T03:00:37.264Z,28.30
2018-11-25T03:03:07.056Z,27.50
2018-11-25T03:05:36.832Z,26.30
2018-11-25T03:08:06.631Z,26.40
2018-11-25T03:10:36.315Z,27.13
2018-11-25T03:13:06.122Z,26.03
2018-11-25T03:15:35.921Z,27.57
2018-11-25T03:18:10.241Z,26.13
2018-11-25T03:20:40.111Z,27.00
2018-11-25T03:23:09.971Z,24.57
2018-11-25T03:25:39.744Z,24.30
2018-11-25T03:28:09.572Z,25.47
2018-11-25T03:30:39.363Z,26.67
2018-11-25T03:33:09.161Z,24.50
2018-11-25T03:35:38.923Z,25.13
2018-11-25T03:38:08.781Z,25.03
2018-11-25T03:40:38.541Z,23.63
2018-11-25T03:43:08.349Z,23.77
2018-11-25T03:45:38.152Z,22.87
2018-11-25T03:48:07.931Z,23.73
2018-11-25T03:50:37.737Z,25.63
2018-11-25T03:53:07.524Z,23.60
2018-11-25T03:55:37.268Z,23.17
2018-11-25T03:58:07.253Z,24.40
2018-11-25T04:00:37.010Z,22.80
2018-11-25T04:03:06.820Z,22.53
2018-11-25T04:05:36.529Z,23.20
2018-11-25T04:08:06.283Z,23.00
2018-11-25T04:10:36.168Z,23.43
2018-11-25T04:13:06.208Z,21.83
2018-11-25T04:15:35.985Z,21.83
2018-11-25T04:18:05.765Z,21.83
2018-11-25T04:20:35.507Z,20.93
2018-11-25T04:23:05.318Z,20.77
2018-11-25T04:25:34.952Z,20.40
2018-11-25T04:28:04.735Z,20.27
2018-11-25T04:30:34.437Z,20.83
2018-11-25T04:33:04.195Z,21.07
2018-11-25T04:35:33.968Z,19.20
2018-11-25T04:38:03.753Z,22.33
2018-11-25T04:40:33.408Z,21.90
2018-11-25T04:43:03.177Z,20.77
2018-11-25T04:45:32.883Z,20.20
2018-11-25T04:48:02.818Z,22.10
2018-11-25T04:50:32.503Z,18.63
2018-11-25T04:53:02.574Z,19.57
2018-11-25T04:55:32.331Z,18.57
2018-11-25T04:58:02.151Z,19.00
2018-11-25T05:00:31.950Z,19.13
2018-11-25T05:03:01.775Z,18.47
2018-11-25T05:05:31.672Z,18.47
2018-11-25T05:08:01.352Z,17.97
2018-11-25T05:10:31.283Z,18.87
2018-11-25T05:13:01.072Z,18.17
2018-11-25T05:15:30.850Z,18.10
2018-11-25T05:18:00.588Z,17.90
2018-11-25T05:20:30.263Z,17.50
2018-11-25T05:23:00.000Z,16.40
2018-11-25T05:25:29.859Z,17.30
2018-11-25T05:27:59.658Z,17.57
2018-11-25T05:30:29.377Z,16.57
2018-11-25T05:32:59.175Z,17.37
2018-11-25T05:35:28.992Z,17.13
2018-11-25T05:37:58.763Z,18.53
2018-11-25T05:40:28.508Z,16.63
2018-11-25T05:42:58.249Z,16.27
2018-11-25T05:45:28.023Z,16.73
2018-11-25T05:47:57.903Z,17.30
2018-11-25T05:50:27.600Z,15.90
2018-11-25T05:52:57.283Z,16.33
2018-11-25T05:55:27.016Z,15.70
2018-11-25T05:57:56.807Z,15.70
2018-11-25T06:00:28.256Z,15.47
2018-11-25T06:02:58.211Z,16.33
2018-11-25T06:05:28.020Z,15.87
2018-11-25T06:07:57.911Z,15.67
2018-11-25T06:10:27.599Z,16.07
2018-11-25T06:12:57.633Z,15.90
2018-11-25T06:15:27.319Z,15.00
2018-11-25T06:17:57.263Z,15.47
2018-11-25T06:20:27.121Z,14.80
2018-11-25T06:22:56.915Z,13.70
2018-11-25T06:25:26.601Z,15.80
2018-11-25T06:27:56.915Z,15.87
2018-11-25T06:30:26.592Z,13.50
2018-11-25T06:32:56.325Z,14.97
2018-11-25T06:35:26.164Z,15.00
2018-11-25T06:37:55.895Z,14.27
2018-11-25T06:40:25.653Z,14.53
2018-11-25T06:42:55.263Z,12.50
2018-11-25T06:45:26.583Z,14.13
2018-11-25T06:47:57.080Z,12.87
2018-11-25T06:50:26.743Z,13.50
2018-11-25T06:52:56.597Z,14.07
2018-11-25T06:55:26.404Z,12.87
2018-11-25T06:57:56.321Z,14.37
2018-11-25T07:00:26.610Z,12.80
2018-11-25T07:02:56.339Z,15.23
2018-11-25T07:05:26.428Z,14.97
2018-11-25T07:07:56.235Z,14.57
2018-11-25T07:10:26.019Z,35.27
2018-11-25T07:12:56.420Z,69.37
2018-11-25T07:15:26.223Z,71.80
2018-11-25T07:17:56.120Z,58.17
2018-11-25T07:20:25.898Z,31.70
2018-11-25T07:22:55.544Z,29.93
2018-11-25T07:25:25.491Z,27.97
2018-11-25T07:27:55.159Z,31.00
2018-11-25T07:30:25.835Z,29.40
2018-11-25T07:32:55.708Z,32.33
2018-11-25T07:35:27.327Z,33.93
2018-11-25T07:37:57.627Z,36.63
2018-11-25T07:40:27.668Z,33.73
2018-11-25T07:42:57.682Z,30.33
2018-11-25T07:45:30.630Z,28.60
2018-11-25T07:47:57.400Z,28.53
2018-11-25T07:50:27.204Z,27.90
2018-11-25T07:52:57.064Z,29.03
2018-11-25T07:55:26.978Z,27.07
2018-11-25T07:57:58.309Z,29.10
2018-11-25T08:00:28.218Z,30.40
2018-11-25T08:02:58.005Z,27.10
2018-11-25T08:05:28.283Z,27.67
2018-11-25T08:07:58.037Z,26.27
2018-11-25T08:10:28.832Z,25.90
2018-11-25T08:12:58.582Z,26.27
2018-11-25T08:15:28.427Z,27.07
2018-11-25T08:17:58.227Z,25.67
2018-11-25T08:20:28.004Z,29.23
2018-11-25T08:22:57.861Z,30.47
2018-11-25T08:25:27.632Z,40.30
2018-11-25T08:27:57.471Z,34.90
2018-11-25T08:30:27.222Z,33.47
2018-11-25T08:32:56.961Z,29.10
2018-11-25T08:35:26.684Z,31.30
2018-11-25T08:37:56.412Z,40.13
2018-11-25T08:40:26.352Z,46.63
2018-11-25T08:42:56.132Z,55.90
2018-11-25T08:45:25.848Z,44.33
2018-11-25T08:47:55.554Z,54.13
2018-11-25T08:50:25.271Z,30.53
2018-11-25T08:52:54.968Z,38.93
2018-11-25T08:55:25.547Z,44.07
2018-11-25T08:57:55.563Z,46.40
2018-11-25T09:00:27.205Z,42.40
2018-11-25T09:02:57.469Z,46.27
2018-11-25T09:05:27.200Z,50.87
2018-11-25T09:07:57.544Z,41.30
2018-11-25T09:10:27.383Z,26.40
2018-11-25T09:12:58.144Z,22.17
2018-11-25T09:15:31.659Z,19.43
2018-11-25T09:18:01.467Z,24.03
2018-11-25T09:20:31.279Z,19.60
2018-11-25T09:23:01.072Z,17.07
2018-11-25T09:25:31.827Z,16.17
2018-11-25T09:28:02.611Z,14.53
2018-11-25T09:30:33.016Z,15.10
2018-11-25T09:33:02.813Z,14.83
2018-11-25T09:35:32.527Z,13.50
2018-11-25T09:38:02.699Z,13.80
2018-11-25T09:40:32.444Z,14.37
2018-11-25T09:43:02.300Z,20.07
2018-11-25T09:45:32.096Z,28.47
2018-11-25T09:48:02.011Z,25.67
2018-11-25T09:50:31.821Z,30.10
2018-11-25T09:53:01.604Z,28.37
2018-11-25T09:55:31.362Z,27.23
2018-11-25T09:58:01.785Z,34.63
2018-11-25T10:00:33.628Z,30.70
2018-11-25T10:03:04.093Z,29.27
2018-11-25T10:05:33.776Z,30.93
2018-11-25T10:08:03.715Z,32.70
2018-11-25T10:10:33.313Z,31.00
2018-11-25T10:13:06.299Z,38.90
2018-11-25T10:15:35.980Z,39.77
2018-11-25T10:18:05.849Z,46.30
2018-11-25T10:20:35.487Z,48.53
2018-11-25T10:23:08.310Z,55.43
2018-11-25T10:25:38.133Z,58.17
2018-11-25T10:28:08.243Z,61.37
2018-11-25T10:30:38.120Z,51.93
2018-11-25T10:33:09.720Z,50.90
2018-11-25T10:35:39.524Z,50.70
2018-11-25T10:38:09.416Z,47.20
2018-11-25T10:40:39.904Z,49.87
2018-11-25T10:43:09.668Z,50.90
2018-11-25T10:45:39.420Z,33.23
2018-11-25T10:48:09.492Z,40.83
2018-11-25T10:50:39.280Z,52.77
2018-11-25T10:53:09.110Z,52.53
2018-11-25T10:55:38.901Z,42.93
2018-11-25T10:58:09.408Z,44.43
2018-11-25T11:00:45.893Z,45.10
2018-11-25T11:03:20.831Z,41.37
2018-11-25T11:05:55.464Z,39.63
2018-11-25T11:08:25.309Z,38.87
2018-11-25T11:10:55.295Z,37.13
2018-11-25T11:13:25.212Z,37.53
2018-11-25T11:15:55.012Z,35.10
2018-11-25T11:18:25.012Z,35.87
2018-11-25T11:20:54.671Z,31.50
2018-11-25T11:23:24.448Z,30.47
2018-11-25T11:25:54.424Z,31.73
2018-11-25T11:28:24.227Z,30.73
2018-11-25T11:30:54.137Z,32.57
2018-11-25T11:33:23.875Z,34.80
2018-11-25T11:35:53.674Z,32.30
2018-11-25T11:38:23.501Z,33.47
2018-11-25T11:40:53.836Z,32.60
2018-11-25T11:43:23.539Z,34.87
2018-11-25T11:45:53.460Z,31.73
2018-11-25T11:48:23.245Z,29.70
2018-11-25T11:50:53.057Z,27.87
2018-11-25T11:53:22.851Z,28.77
2018-11-25T11:55:52.689Z,28.60
2018-11-25T11:58:22.533Z,29.43
2018-11-25T12:00:52.263Z,26.97
2018-11-25T12:03:26.489Z,26.47
2018-11-25T12:05:51.939Z,28.97
2018-11-25T12:08:21.684Z,32.13
2018-11-25T12:10:51.504Z,32.93
2018-11-25T12:13:21.295Z,31.27
2018-11-25T12:15:51.160Z,31.10
2018-11-25T12:18:20.956Z,34.77
2018-11-25T12:20:50.783Z,31.57
2018-11-25T12:23:20.576Z,31.60
2018-11-25T12:25:50.653Z,32.23
2018-11-25T12:28:20.452Z,30.67
2018-11-25T12:30:50.331Z,30.67
2018-11-25T12:33:20.110Z,31.43
2018-11-25T12:35:50.015Z,31.53
2018-11-25T12:38:19.708Z,31.37
2018-11-25T12:40:49.468Z,31.23
2018-11-25T12:43:19.276Z,31.63
2018-11-25T12:45:49.056Z,30.43
2018-11-25T12:48:18.751Z,30.17
2018-11-25T12:50:48.540Z,30.30
2018-11-25T12:53:18.286Z,31.13
2018-11-25T12:55:48.192Z,31.50
2018-11-25T12:58:17.897Z,31.43
2018-11-25T13:00:49.031Z,31.33
2018-11-25T13:03:18.864Z,30.33
2018-11-25T13:05:49.227Z,30.50
2018-11-25T13:08:19.058Z,29.03
2018-11-25T13:10:48.804Z,30.00
2018-11-25T13:13:18.727Z,41.17
2018-11-25T13:15:48.393Z,48.67
2018-11-25T13:18:18.227Z,39.73
2018-11-25T13:20:47.929Z,38.20
2018-11-25T13:23:17.792Z,39.80
2018-11-25T13:25:48.603Z,39.97
2018-11-25T13:28:18.440Z,40.57
2018-11-25T13:30:48.231Z,43.90
2018-11-25T13:33:17.883Z,44.60
2018-11-25T13:35:47.853Z,49.23
2018-11-25T13:38:17.576Z,54.13
2018-11-25T13:40:47.442Z,72.63
2018-11-25T13:43:17.117Z,67.87
2018-11-25T13:45:46.842Z,70.00
2018-11-25T13:48:16.463Z,78.93
2018-11-25T13:50:46.312Z,76.37
2018-11-25T13:53:16.195Z,63.60
2018-11-25T13:55:45.958Z,85.53
2018-11-25T13:58:16.344Z,102.33
2018-11-25T14:00:47.691Z,90.13
2018-11-25T14:03:24.173Z,82.37
2018-11-25T14:05:55.240Z,89.90
2018-11-25T14:08:24.943Z,83.93
2018-11-25T14:11:04.776Z,82.20
2018-11-25T14:13:34.636Z,86.80
2018-11-25T14:16:04.804Z,84.23
2018-11-25T14:18:34.596Z,83.27
2018-11-25T14:21:04.380Z,81.10
2018-11-25T14:23:34.257Z,85.43
2018-11-25T14:26:09.216Z,89.23
2018-11-25T14:28:39.064Z,82.20
2018-11-25T14:31:08.871Z,82.70
2018-11-25T14:33:38.910Z,82.80
2018-11-25T14:36:08.713Z,81.07
2018-11-25T14:38:38.584Z,84.77
2018-11-25T14:41:08.661Z,80.40
2018-11-25T14:43:38.467Z,80.30
2018-11-25T14:46:08.364Z,79.37
2018-11-25T14:48:37.996Z,87.37
2018-11-25T14:51:07.825Z,91.20
2018-11-25T14:53:37.545Z,93.70
2018-11-25T14:56:07.343Z,93.27
2018-11-25T14:58:37.143Z,86.57
2018-11-25T15:01:07.033Z,91.57
2018-11-25T15:03:36.604Z,90.07
2018-11-25T15:06:06.349Z,89.10
2018-11-25T15:08:36.552Z,88.63
2018-11-25T15:11:06.238Z,86.10
2018-11-25T15:13:35.887Z,88.67
2018-11-25T15:16:07.897Z,87.63
2018-11-25T15:18:37.660Z,85.80
2018-11-25T15:21:08.544Z,88.47
2018-11-25T15:23:38.483Z,85.40
2018-11-25T15:26:09.636Z,88.60
2018-11-25T15:28:39.508Z,84.20
2018-11-25T15:31:09.199Z,92.00
2018-11-25T15:33:38.937Z,85.53
2018-11-25T15:36:08.744Z,82.03
2018-11-25T15:38:38.486Z,89.90
2018-11-25T15:41:08.438Z,88.80
2018-11-25T15:43:38.179Z,94.50
2018-11-25T15:46:07.972Z,92.10
2018-11-25T15:48:37.784Z,97.03
2018-11-25T15:51:07.609Z,92.30
2018-11-25T15:53:37.233Z,94.03
2018-11-25T15:56:09.686Z,89.80
2018-11-25T15:58:39.484Z,91.57
2018-11-25T16:01:09.318Z,90.30
2018-11-25T16:03:39.087Z,91.13
2018-11-25T16:06:12.166Z,89.77
2018-11-25T16:08:41.958Z,87.93
2018-11-25T16:11:11.577Z,90.07
2018-11-25T16:13:41.366Z,90.33
2018-11-25T16:16:11.447Z,92.33
2018-11-25T16:18:41.531Z,87.83
2018-11-25T16:21:11.258Z,87.20
2018-11-25T16:23:41.112Z,83.70
2018-11-25T16:26:17.135Z,83.57
2018-11-25T16:28:48.397Z,84.47
2018-11-25T16:31:18.184Z,85.20
2018-11-25T16:33:47.953Z,81.30
2018-11-25T16:36:17.654Z,84.07
2018-11-25T16:38:47.652Z,81.23
2018-11-25T16:41:17.350Z,79.90
2018-11-25T16:43:47.268Z,83.67
2018-11-25T16:46:16.968Z,83.60
2018-11-25T16:48:46.820Z,82.53
2018-11-25T16:51:16.856Z,82.57
2018-11-25T16:53:46.799Z,80.97
2018-11-25T16:56:16.516Z,79.93
2018-11-25T16:58:46.294Z,83.83
2018-11-25T17:01:16.055Z,96.13
2018-11-25T17:03:45.964Z,90.10
2018-11-25T17:06:16.045Z,83.13
2018-11-25T17:08:46.275Z,77.73
2018-11-25T17:11:16.091Z,83.50
2018-11-25T17:13:45.888Z,81.63
2018-11-25T17:16:15.742Z,77.37
2018-11-25T17:18:45.635Z,79.97
2018-11-25T17:21:15.496Z,84.43
2018-11-25T17:23:45.334Z,87.00
2018-11-25T17:26:15.142Z,110.97
2018-11-25T17:28:44.953Z,98.50
2018-11-25T17:31:14.723Z,102.13
2018-11-25T17:33:44.915Z,96.43
2018-11-25T17:36:14.655Z,103.37
2018-11-25T17:38:44.400Z,104.30
2018-11-25T17:41:14.344Z,114.27
2018-11-25T17:43:45.076Z,104.03
2018-11-25T17:46:14.809Z,105.03
2018-11-25T17:48:44.788Z,108.07
2018-11-25T17:51:14.540Z,109.77
2018-11-25T17:53:44.319Z,111.70
2018-11-25T17:56:14.110Z,110.20
2018-11-25T17:58:43.957Z,110.17
2018-11-25T18:01:13.863Z,112.50
2018-11-25T18:03:43.935Z,114.20
2018-11-25T18:06:13.612Z,112.63
2018-11-25T18:08:43.484Z,117.23
2018-11-25T18:11:13.490Z,116.13
2018-11-25T18:13:43.548Z,112.50
2018-11-25T18:16:14.369Z,115.70
2018-11-25T18:18:51.849Z,113.90
2018-11-25T18:21:25.168Z,114.63
2018-11-25T18:23:54.942Z,121.07
2018-11-25T18:26:24.867Z,122.73
2018-11-25T18:28:54.733Z,119.70
2018-11-25T18:31:24.811Z,128.17
2018-11-25T18:33:54.529Z,124.07
2018-11-25T18:36:24.097Z,121.80
2018-11-25T18:38:53.843Z,125.37
2018-11-25T18:41:23.453Z,121.03
2018-11-25T18:43:53.311Z,123.90
2018-11-25T18:46:23.205Z,127.67
2018-11-25T18:48:53.749Z,126.23
2018-11-25T18:51:23.771Z,131.13
2018-11-25T18:53:53.540Z,137.97
2018-11-25T18:56:23.340Z,139.63
2018-11-25T18:58:53.104Z,143.00
2018-11-25T19:01:30.553Z,136.97
2018-11-25T19:04:02.361Z,150.07
2018-11-25T19:06:32.162Z,147.77
2018-11-25T19:09:02.450Z,144.63
2018-11-25T19:11:33.013Z,143.83
2018-11-25T19:14:02.828Z,162.63
2018-11-25T19:16:32.729Z,146.90
2018-11-25T19:19:03.080Z,159.60
2018-11-25T19:21:32.831Z,160.03
2018-11-25T19:24:02.693Z,161.47
2018-11-25T19:26:32.341Z,168.87
2018-11-25T19:29:02.268Z,142.37
2018-11-25T19:31:32.073Z,149.70
2018-11-25T19:34:02.556Z,138.30
2018-11-25T19:36:32.292Z,141.27
2018-11-25T19:39:02.097Z,142.23
2018-11-25T19:41:32.868Z,146.73
2018-11-25T19:44:06.300Z,141.93
2018-11-25T19:46:36.740Z,138.87
2018-11-25T19:49:10.773Z,136.00
2018-11-25T19:51:40.914Z,136.03
2018-11-25T19:54:10.887Z,131.60
2018-11-25T19:56:40.693Z,130.13
2018-11-25T19:59:10.567Z,131.33
2018-11-25T20:01:40.368Z,130.13
2018-11-25T20:04:10.176Z,128.33
2018-11-25T20:06:40.312Z,123.23
2018-11-25T20:09:10.977Z,124.87
2018-11-25T20:11:40.699Z,123.67
2018-11-25T20:14:10.880Z,120.23
2018-11-25T20:16:45.979Z,121.10
2018-11-25T20:19:15.972Z,118.77
2018-11-25T20:21:50.821Z,118.83
2018-11-25T20:24:20.936Z,117.00
2018-11-25T20:26:56.143Z,116.80
2018-11-25T20:29:25.928Z,110.13
2018-11-25T20:32:59.488Z,113.53
2018-11-25T20:35:29.524Z,110.87
2018-11-25T20:38:04.805Z,99.67
2018-11-25T20:40:34.805Z,91.33
2018-11-25T20:43:04.731Z,88.73
2018-11-25T20:45:39.884Z,88.97
2018-11-25T20:48:09.643Z,85.47
2018-11-25T20:50:39.403Z,121.70
2018-11-25T20:53:14.166Z,94.20
2018-11-25T20:55:44.031Z,99.10
2018-11-25T20:58:13.672Z,102.83
2018-11-25T21:00:43.847Z,99.13
2018-11-25T21:03:13.976Z,98.20
2018-11-25T21:05:43.736Z,96.33
2018-11-25T21:08:13.676Z,96.17
2018-11-25T21:10:43.569Z,93.33
2018-11-25T21:13:13.467Z,88.87
2018-11-25T21:15:43.157Z,89.23
2018-11-25T21:18:12.899Z,90.63
2018-11-25T21:20:50.841Z,91.10
2018-11-25T21:23:12.480Z,87.63
2018-11-25T21:25:42.225Z,87.27
2018-11-25T21:28:12.158Z,84.07
2018-11-25T21:30:41.946Z,84.93
2018-11-25T21:33:11.744Z,83.17
2018-11-25T21:35:41.771Z,85.87
2018-11-25T21:38:11.531Z,85.20
2018-11-25T21:40:41.331Z,82.03
2018-11-25T21:43:11.032Z,84.50
2018-11-25T21:45:41.191Z,78.83
2018-11-25T21:48:10.964Z,83.60
2018-11-25T21:50:40.874Z,85.97
2018-11-25T21:53:10.688Z,87.37
2018-11-25T21:55:40.479Z,90.43
2018-11-25T21:58:10.170Z,90.63
2018-11-25T22:00:40.000Z,96.07
2018-11-25T22:03:09.691Z,84.20
2018-11-25T22:05:39.416Z,99.50
2018-11-25T22:08:09.175Z,93.67
2018-11-25T22:10:39.059Z,96.23
2018-11-25T22:13:09.365Z,104.80
2018-11-25T22:15:39.046Z,100.80
2018-11-25T22:18:08.840Z,93.10
2018-11-25T22:20:38.532Z,97.30
2018-11-25T22:23:08.328Z,98.23
2018-11-25T22:25:38.026Z,95.03
2018-11-25T22:28:07.819Z,96.27
2018-11-25T22:30:37.908Z,96.87
2018-11-25T22:33:07.880Z,93.63
2018-11-25T22:35:38.044Z,92.93
2018-11-25T22:38:08.940Z,93.50
2018-11-25T22:40:38.584Z,90.10
2018-11-25T22:43:08.488Z,90.57
2018-11-25T22:45:38.097Z,91.67
2018-11-25T22:48:07.980Z,95.90
2018-11-25T22:50:38.066Z,87.37
2018-11-25T22:53:08.351Z,85.33
2018-11-25T22:55:37.976Z,86.37
2018-11-25T22:58:07.763Z,85.97
2018-11-25T23:00:38.350Z,87.53
2018-11-25T23:03:08.477Z,82.87
2018-11-25T23:05:49.112Z,83.57
2018-11-25T23:08:18.933Z,82.87
2018-11-25T23:10:48.675Z,82.57
2018-11-25T23:13:18.281Z,79.70
2018-11-25T23:15:48.050Z,82.17
2018-11-25T23:18:17.712Z,80.77
2018-11-25T23:20:47.548Z,79.27
2018-11-25T23:23:17.268Z,77.07
2018-11-25T23:25:47.068Z,76.70
2018-11-25T23:28:16.833Z,75.03
2018-11-25T23:30:46.529Z,78.50
2018-11-25T23:33:16.363Z,74.77
2018-11-25T23:35:46.057Z,75.80
2018-11-25T23:38:15.782Z,73.60
2018-11-25T23:40:45.580Z,74.50
2018-11-25T23:43:15.335Z,72.73
2018-11-25T23:45:45.019Z,73.27
2018-11-25T23:48:14.818Z,70.40
2018-11-25T23:50:44.574Z,71.77
2018-11-25T23:53:14.335Z,73.43
2018-11-25T23:55:44.131Z,70.77
2018-11-25T23:58:13.732Z,68.07
